createdAt,value
2018-11-25T00:00:42.583Z,33.80
2018-11-25T00:03:10.986Z,33.70
2018-11-25T00:05:39.402Z,33.70
2018-11-25T00:08:07.772Z,34.30
2018-11-25T00:10:36.144Z,33.70
2018-11-25T00:13:04.758Z,33.60
2018-11-25T00:15:33.058Z,33.60
2018-11-25T00:18:01.414Z,33.60
2018-11-25T00:20:29.738Z,33.60
2018-11-25T00:22:58.111Z,33.60
2018-11-25T00:25:26.475Z,33.60
2018-11-25T00:27:54.798Z,33.60
2018-11-25T00:30:23.129Z,33.60
2018-11-25T00:32:51.515Z,33.60
2018-11-25T00:35:19.810Z,33.60
2018-11-25T00:37:48.919Z,33.60
2018-11-25T00:40:16.756Z,33.60
2018-11-25T00:42:45.513Z,33.60
2018-11-25T00:45:17.945Z,34.00
2018-11-25T00:47:46.440Z,33.60
2018-11-25T00:50:15.063Z,33.60
2018-11-25T00:52:43.401Z,33.60
2018-11-25T00:55:13.803Z,33.60
2018-11-25T00:57:42.180Z,33.50
2018-11-25T01:00:18.389Z,33.50
2018-11-25T01:02:47.495Z,33.50
2018-11-25T01:05:15.751Z,33.50
2018-11-25T01:07:44.176Z,33.50
2018-11-25T01:10:14.181Z,33.50
2018-11-25T01:12:42.914Z,34.00
2018-11-25T01:15:13.150Z,33.50
2018-11-25T01:17:41.475Z,33.50
2018-11-25T01:20:13.033Z,33.50
2018-11-25T01:22:41.432Z,33.70
2018-11-25T01:25:10.385Z,33.50
2018-11-25T01:27:38.781Z,33.50
2018-11-25T01:30:11.365Z,33.50
2018-11-25T01:32:39.710Z,33.30
2018-11-25T01:35:09.317Z,33.50
2018-11-25T01:37:37.719Z,33.50
2018-11-25T01:40:09.515Z,33.50
2018-11-25T01:42:37.892Z,33.50
2018-11-25T01:45:07.630Z,33.50
2018-11-25T01:47:35.993Z,33.50
2018-11-25T01:50:05.288Z,33.50
2018-11-25T01:52:33.579Z,33.50
2018-11-25T01:55:01.911Z,33.50
2018-11-25T01:57:30.250Z,33.50
2018-11-25T01:59:58.638Z,33.50
2018-11-25T02:02:26.962Z,33.50
2018-11-25T02:04:55.264Z,33.50
2018-11-25T02:07:23.592Z,33.50
2018-11-25T02:09:52.014Z,33.40
2018-11-25T02:12:20.369Z,33.50
2018-11-25T02:14:48.754Z,33.50
2018-11-25T02:17:17.050Z,33.40
2018-11-25T02:19:45.427Z,33.40
2018-11-25T02:22:13.800Z,33.50
2018-11-25T02:24:42.129Z,33.40
2018-11-25T02:27:10.550Z,33.40
2018-11-25T02:29:38.853Z,33.40
2018-11-25T02:32:07.225Z,33.40
2018-11-25T02:34:35.622Z,33.40
2018-11-25T02:37:03.976Z,33.40
2018-11-25T02:39:32.297Z,33.40
2018-11-25T02:42:00.618Z,33.40
2018-11-25T02:44:28.922Z,33.40
2018-11-25T02:46:57.266Z,33.50
2018-11-25T02:49:25.612Z,33.40
2018-11-25T02:51:53.888Z,33.40
2018-11-25T02:54:22.195Z,33.40
2018-11-25T02:56:50.521Z,33.40
2018-11-25T02:59:18.838Z,33.40
2018-11-25T03:01:47.260Z,33.40
2018-11-25T03:04:15.668Z,33.40
2018-11-25T03:06:44.036Z,33.50
2018-11-25T03:09:12.384Z,33.80
2018-11-25T03:11:40.774Z,33.40
2018-11-25T03:14:09.080Z,33.40
2018-11-25T03:16:37.433Z,33.40
2018-11-25T03:19:05.848Z,33.40
2018-11-25T03:21:34.220Z,34.10
2018-11-25T03:24:02.731Z,33.40
2018-11-25T03:26:31.068Z,33.40
2018-11-25T03:28:59.380Z,33.40
2018-11-25T03:31:27.704Z,33.40
2018-11-25T03:33:56.166Z,33.40
2018-11-25T03:36:24.548Z,33.40
2018-11-25T03:38:52.932Z,33.40
2018-11-25T03:41:21.299Z,33.40
2018-11-25T03:43:49.605Z,33.60
2018-11-25T03:46:17.940Z,33.40
2018-11-25T03:48:46.275Z,33.40
2018-11-25T03:51:14.620Z,33.40
2018-11-25T03:53:42.956Z,33.40
2018-11-25T03:56:11.301Z,33.40
2018-11-25T03:58:39.650Z,33.40
2018-11-25T04:01:07.945Z,33.40
2018-11-25T04:03:36.270Z,33.40
2018-11-25T04:06:04.999Z,33.40
2018-11-25T04:08:33.331Z,33.40
2018-11-25T04:11:01.671Z,33.40
2018-11-25T04:13:29.984Z,33.40
2018-11-25T04:15:58.288Z,33.40
2018-11-25T04:18:26.690Z,33.40
2018-11-25T04:20:55.009Z,33.40
2018-11-25T04:23:29.981Z,33.40
2018-11-25T04:25:58.309Z,33.40
2018-11-25T04:28:26.609Z,33.40
2018-11-25T04:30:54.942Z,34.40
2018-11-25T04:33:23.341Z,33.40
2018-11-25T04:35:51.623Z,33.40
2018-11-25T04:38:19.959Z,33.40
2018-11-25T04:40:48.295Z,33.40
2018-11-25T04:43:16.663Z,33.40
2018-11-25T04:45:45.112Z,33.40
2018-11-25T04:48:13.419Z,33.40
2018-11-25T04:50:41.777Z,33.40
2018-11-25T04:53:10.084Z,33.40
2018-11-25T04:55:38.474Z,33.30
2018-11-25T04:58:06.876Z,33.40
2018-11-25T05:00:35.155Z,33.40
2018-11-25T05:03:03.468Z,33.40
2018-11-25T05:05:31.881Z,33.40
2018-11-25T05:08:00.297Z,34.40
2018-11-25T05:10:28.652Z,33.40
2018-11-25T05:12:56.986Z,33.40
2018-11-25T05:15:25.300Z,33.40
2018-11-25T05:17:53.645Z,33.40
2018-11-25T05:20:22.051Z,33.40
2018-11-25T05:22:50.354Z,33.40
2018-11-25T05:25:19.291Z,33.40
2018-11-25T05:27:47.652Z,33.40
2018-11-25T05:30:18.594Z,33.40
2018-11-25T05:32:46.969Z,33.40
2018-11-25T05:35:17.227Z,33.40
2018-11-25T05:37:45.680Z,33.40
2018-11-25T05:40:14.934Z,33.40
2018-11-25T05:42:43.298Z,33.30
2018-11-25T05:45:13.584Z,33.30
2018-11-25T05:47:41.952Z,33.30
2018-11-25T05:50:11.725Z,33.30
2018-11-25T05:52:40.031Z,33.40
2018-11-25T05:55:09.258Z,33.30
2018-11-25T05:57:37.705Z,33.30
2018-11-25T06:00:18.937Z,33.30
2018-11-25T06:02:47.316Z,33.30
2018-11-25T06:05:15.624Z,33.00
2018-11-25T06:07:43.931Z,34.00
2018-11-25T06:10:13.079Z,33.30
2018-11-25T06:12:41.581Z,33.30
2018-11-25T06:15:13.621Z,33.30
2018-11-25T06:17:42.108Z,33.20
2018-11-25T06:20:11.725Z,33.30
2018-11-25T06:22:40.149Z,33.30
2018-11-25T06:25:10.793Z,33.30
2018-11-25T06:27:39.121Z,33.30
2018-11-25T06:30:09.815Z,33.30
2018-11-25T06:32:38.223Z,33.20
2018-11-25T06:35:08.082Z,33.30
2018-11-25T06:37:36.437Z,33.30
2018-11-25T06:40:07.440Z,32.70
2018-11-25T06:42:35.921Z,33.30
2018-11-25T06:45:05.008Z,33.30
2018-11-25T06:47:33.291Z,33.30
2018-11-25T06:50:01.619Z,33.30
2018-11-25T06:52:29.925Z,33.30
2018-11-25T06:54:58.207Z,33.30
2018-11-25T06:57:26.542Z,33.30
2018-11-25T06:59:54.891Z,32.20
2018-11-25T07:02:23.205Z,33.40
2018-11-25T07:04:51.659Z,33.40
2018-11-25T07:07:20.198Z,33.40
2018-11-25T07:09:48.512Z,33.60
2018-11-25T07:12:16.850Z,33.60
2018-11-25T07:14:45.283Z,39.10
2018-11-25T07:17:13.619Z,36.30
2018-11-25T07:19:42.133Z,37.60
2018-11-25T07:22:10.731Z,39.60
2018-11-25T07:24:39.127Z,43.70
2018-11-25T07:27:07.502Z,41.90
2018-11-25T07:29:35.832Z,39.90
2018-11-25T07:32:04.198Z,39.90
2018-11-25T07:34:33.115Z,39.90
2018-11-25T07:37:01.451Z,39.00
2018-11-25T07:39:29.956Z,38.20
2018-11-25T07:41:58.227Z,37.70
2018-11-25T07:44:26.547Z,39.40
2018-11-25T07:46:55.191Z,39.80
2018-11-25T07:49:23.524Z,38.20
2018-11-25T07:51:51.881Z,38.40
2018-11-25T07:54:20.308Z,38.10
2018-11-25T07:56:48.670Z,38.80
2018-11-25T07:59:16.990Z,38.50
2018-11-25T08:01:45.437Z,41.80
2018-11-25T08:04:13.783Z,40.00
2018-11-25T08:06:42.161Z,40.80
2018-11-25T08:09:10.470Z,39.80
2018-11-25T08:11:38.819Z,39.80
2018-11-25T08:14:07.302Z,39.90
2018-11-25T08:16:35.938Z,40.20
2018-11-25T08:19:04.381Z,41.50
2018-11-25T08:21:32.774Z,39.80
2018-11-25T08:24:01.122Z,39.80
2018-11-25T08:26:29.446Z,38.10
2018-11-25T08:28:57.784Z,36.20
2018-11-25T08:31:26.883Z,35.20
2018-11-25T08:33:55.185Z,33.80
2018-11-25T08:36:23.510Z,33.80
2018-11-25T08:38:52.136Z,33.10
2018-11-25T08:41:20.868Z,32.10
2018-11-25T08:43:49.170Z,31.60
2018-11-25T08:46:17.510Z,31.20
2018-11-25T08:48:45.901Z,30.30
2018-11-25T08:51:14.207Z,29.50
2018-11-25T08:53:42.469Z,29.00
2018-11-25T08:56:10.813Z,29.50
2018-11-25T08:58:39.140Z,29.70
2018-11-25T09:01:07.539Z,29.70
2018-11-25T09:03:35.858Z,29.90
2018-11-25T09:06:04.218Z,29.80
2018-11-25T09:08:32.616Z,30.20
2018-11-25T09:11:00.994Z,30.60
2018-11-25T09:13:29.357Z,44.70
2018-11-25T09:15:57.768Z,37.40
2018-11-25T09:18:26.149Z,34.70
2018-11-25T09:20:54.502Z,34.80
2018-11-25T09:23:22.838Z,34.10
2018-11-25T09:25:51.147Z,33.60
2018-11-25T09:28:19.641Z,33.60
2018-11-25T09:30:47.958Z,33.60
2018-11-25T09:33:16.254Z,33.60
2018-11-25T09:35:44.692Z,33.70
2018-11-25T09:38:13.131Z,34.20
2018-11-25T09:40:41.422Z,34.10
2018-11-25T09:43:09.778Z,34.10
2018-11-25T09:45:38.314Z,33.60
2018-11-25T09:48:06.818Z,34.00
2018-11-25T09:50:35.467Z,34.00
2018-11-25T09:53:04.292Z,35.10
2018-11-25T09:55:33.849Z,35.50
2018-11-25T09:58:01.574Z,35.50
2018-11-25T10:00:33.123Z,36.30
2018-11-25T10:03:01.980Z,36.10
2018-11-25T10:05:30.296Z,43.70
2018-11-25T10:07:58.785Z,47.70
2018-11-25T10:10:27.234Z,45.80
2018-11-25T10:12:55.646Z,42.60
2018-11-25T10:15:25.937Z,42.50
2018-11-25T10:17:59.438Z,44.40
2018-11-25T10:20:25.664Z,43.80
2018-11-25T10:22:54.022Z,44.40
2018-11-25T10:25:22.315Z,51.20
2018-11-25T10:27:50.614Z,47.20
2018-11-25T10:30:21.897Z,47.20
2018-11-25T10:33:02.267Z,45.60
2018-11-25T10:35:30.696Z,44.90
2018-11-25T10:38:00.532Z,45.60
2018-11-25T10:40:28.938Z,44.80
2018-11-25T10:42:57.279Z,44.00
2018-11-25T10:45:26.599Z,43.90
2018-11-25T10:47:55.608Z,44.20
2018-11-25T10:50:23.989Z,43.20
2018-11-25T10:52:52.424Z,43.70
2018-11-25T10:55:21.676Z,43.40
2018-11-25T10:57:51.739Z,43.30
2018-11-25T11:00:27.576Z,43.70
2018-11-25T11:03:01.432Z,43.40
2018-11-25T11:05:35.293Z,43.90
2018-11-25T11:08:03.673Z,43.00
2018-11-25T11:10:32.000Z,42.60
2018-11-25T11:13:00.377Z,42.50
2018-11-25T11:15:28.870Z,41.80
2018-11-25T11:17:57.208Z,42.20
2018-11-25T11:20:25.603Z,42.30
2018-11-25T11:22:54.043Z,41.90
2018-11-25T11:25:22.426Z,42.30
2018-11-25T11:27:51.056Z,41.90
2018-11-25T11:30:19.414Z,41.80
2018-11-25T11:32:49.176Z,41.40
2018-11-25T11:35:17.636Z,41.50
2018-11-25T11:37:46.048Z,41.10
2018-11-25T11:40:15.153Z,41.60
2018-11-25T11:42:43.493Z,41.50
2018-11-25T11:45:12.890Z,41.40
2018-11-25T11:47:42.869Z,41.10
2018-11-25T11:50:16.624Z,40.30
2018-11-25T11:52:45.068Z,39.70
2018-11-25T11:55:14.577Z,40.70
2018-11-25T11:57:43.614Z,42.40
2018-11-25T12:00:13.652Z,42.20
2018-11-25T12:02:42.403Z,41.50
2018-11-25T12:05:10.783Z,42.20
2018-11-25T12:07:39.241Z,42.50
2018-11-25T12:10:11.199Z,42.80
2018-11-25T12:12:39.558Z,41.90
2018-11-25T12:15:14.596Z,41.80
2018-11-25T12:17:42.920Z,42.10
2018-11-25T12:20:11.624Z,41.80
2018-11-25T12:22:40.137Z,41.60
2018-11-25T12:25:16.254Z,41.30
2018-11-25T12:27:44.704Z,41.00
2018-11-25T12:30:15.007Z,40.80
2018-11-25T12:32:44.327Z,40.00
2018-11-25T12:35:13.931Z,39.70
2018-11-25T12:37:42.321Z,39.70
2018-11-25T12:40:12.925Z,39.70
2018-11-25T12:42:41.737Z,39.70
2018-11-25T12:45:15.489Z,39.70
2018-11-25T12:47:43.853Z,39.60
2018-11-25T12:50:14.399Z,39.70
2018-11-25T12:52:42.864Z,39.70
2018-11-25T12:55:12.925Z,39.70
2018-11-25T12:57:41.417Z,39.70
2018-11-25T13:00:18.961Z,39.70
2018-11-25T13:02:47.591Z,39.60
2018-11-25T13:05:16.250Z,39.70
2018-11-25T13:07:45.039Z,39.70
2018-11-25T13:10:13.395Z,39.70
2018-11-25T13:12:41.865Z,39.70
2018-11-25T13:15:10.655Z,39.70
2018-11-25T13:17:38.939Z,39.70
2018-11-25T13:20:10.155Z,39.70
2018-11-25T13:22:39.211Z,39.70
2018-11-25T13:25:09.415Z,40.20
2018-11-25T13:27:38.043Z,39.90
2018-11-25T13:30:14.450Z,39.70
2018-11-25T13:32:43.065Z,39.60
2018-11-25T13:35:12.049Z,39.70
2018-11-25T13:37:40.736Z,39.70
2018-11-25T13:40:10.364Z,39.70
2018-11-25T13:42:39.031Z,39.70
2018-11-25T13:45:06.399Z,39.80
2018-11-25T13:47:35.071Z,39.60
2018-11-25T13:50:03.418Z,39.70
2018-11-25T13:52:31.989Z,39.70
2018-11-25T13:55:00.400Z,39.70
2018-11-25T13:57:29.102Z,39.70
2018-11-25T13:59:58.068Z,39.70
2018-11-25T14:02:26.376Z,39.70
2018-11-25T14:04:54.843Z,39.70
2018-11-25T14:07:23.176Z,39.70
2018-11-25T14:09:51.911Z,39.70
2018-11-25T14:12:20.255Z,40.20
2018-11-25T14:14:48.591Z,40.50
2018-11-25T14:17:16.933Z,41.30
2018-11-25T14:19:45.358Z,41.80
2018-11-25T14:22:13.737Z,42.00
2018-11-25T14:24:42.060Z,42.10
2018-11-25T14:27:10.774Z,41.90
2018-11-25T14:29:39.101Z,42.30
2018-11-25T14:32:07.475Z,45.50
2018-11-25T14:34:35.843Z,44.30
2018-11-25T14:37:04.281Z,44.80
2018-11-25T14:39:32.610Z,44.90
2018-11-25T14:42:00.930Z,44.60
2018-11-25T14:44:29.310Z,43.80
2018-11-25T14:46:57.751Z,43.60
2018-11-25T14:49:26.076Z,43.30
2018-11-25T14:51:54.413Z,42.90
2018-11-25T14:54:22.814Z,42.60
2018-11-25T14:56:51.094Z,42.40
2018-11-25T14:59:19.515Z,42.20
2018-11-25T15:01:47.874Z,41.90
2018-11-25T15:04:16.163Z,41.70
2018-11-25T15:06:44.516Z,41.60
2018-11-25T15:09:12.854Z,41.40
2018-11-25T15:11:41.111Z,40.90
2018-11-25T15:14:09.454Z,40.90
2018-11-25T15:16:38.012Z,40.60
2018-11-25T15:19:07.036Z,40.30
2018-11-25T15:21:35.503Z,40.10
2018-11-25T15:24:03.842Z,39.50
2018-11-25T15:26:32.179Z,39.50
2018-11-25T15:29:00.574Z,39.50
2018-11-25T15:31:28.919Z,39.50
2018-11-25T15:33:57.254Z,39.50
2018-11-25T15:36:25.606Z,39.50
2018-11-25T15:38:54.006Z,39.50
2018-11-25T15:41:22.334Z,39.50
2018-11-25T15:43:50.660Z,39.50
2018-11-25T15:46:18.960Z,39.50
2018-11-25T15:48:47.234Z,39.50
2018-11-25T15:51:15.622Z,39.50
2018-11-25T15:53:43.932Z,39.50
2018-11-25T15:56:12.260Z,39.50
2018-11-25T15:58:40.677Z,39.50
2018-11-25T16:01:08.995Z,39.50
2018-11-25T16:03:37.280Z,39.50
2018-11-25T16:06:12.261Z,39.50
2018-11-25T16:08:40.554Z,39.50
2018-11-25T16:11:08.857Z,39.50
2018-11-25T16:13:37.225Z,39.50
2018-11-25T16:16:05.574Z,39.50
2018-11-25T16:18:33.985Z,39.50
2018-11-25T16:21:02.473Z,39.50
2018-11-25T16:23:30.788Z,39.50
2018-11-25T16:26:02.001Z,39.50
2018-11-25T16:28:33.718Z,39.50
2018-11-25T16:31:01.981Z,39.50
2018-11-25T16:33:30.416Z,39.50
2018-11-25T16:35:58.904Z,39.40
2018-11-25T16:38:27.218Z,39.30
2018-11-25T16:40:55.530Z,39.70
2018-11-25T16:43:23.984Z,38.90
2018-11-25T16:45:52.321Z,38.60
2018-11-25T16:48:20.738Z,38.60
2018-11-25T16:50:49.058Z,38.50
2018-11-25T16:53:17.559Z,38.10
2018-11-25T16:55:45.920Z,38.30
2018-11-25T16:58:14.231Z,38.20
2018-11-25T17:00:42.587Z,38.10
2018-11-25T17:03:10.940Z,38.10
2018-11-25T17:05:41.411Z,37.90
2018-11-25T17:08:14.949Z,38.00
2018-11-25T17:10:43.221Z,37.50
2018-11-25T17:13:11.597Z,37.60
2018-11-25T17:15:39.978Z,37.20
2018-11-25T17:18:08.363Z,37.20
2018-11-25T17:20:36.693Z,37.00
2018-11-25T17:23:05.450Z,36.90
2018-11-25T17:25:33.786Z,36.70
2018-11-25T17:28:02.067Z,36.90
2018-11-25T17:30:30.445Z,36.70
2018-11-25T17:32:58.754Z,36.60
2018-11-25T17:35:28.760Z,36.60
2018-11-25T17:37:57.120Z,36.60
2018-11-25T17:40:25.479Z,36.40
2018-11-25T17:42:53.786Z,36.30
2018-11-25T17:45:22.160Z,36.30
2018-11-25T17:47:50.529Z,36.10
2018-11-25T17:50:21.350Z,36.20
2018-11-25T17:52:49.854Z,36.00
2018-11-25T17:55:19.144Z,36.10
2018-11-25T17:57:47.528Z,36.00
2018-11-25T18:00:25.179Z,35.90
2018-11-25T18:02:53.471Z,35.80
2018-11-25T18:05:21.813Z,35.30
2018-11-25T18:07:50.133Z,35.70
2018-11-25T18:10:18.568Z,35.60
2018-11-25T18:12:47.124Z,35.50
2018-11-25T18:15:16.981Z,35.50
2018-11-25T18:17:54.537Z,35.60
2018-11-25T18:20:23.718Z,35.40
2018-11-25T18:22:52.085Z,35.40
2018-11-25T18:25:20.407Z,35.60
2018-11-25T18:27:48.749Z,35.60
2018-11-25T18:30:17.655Z,35.80
2018-11-25T18:32:46.568Z,35.80
2018-11-25T18:35:15.012Z,35.60
2018-11-25T18:37:43.407Z,35.60
2018-11-25T18:40:13.523Z,36.10
2018-11-25T18:42:42.802Z,35.20
2018-11-25T18:45:14.357Z,29.70
2018-11-25T18:47:44.220Z,30.10
2018-11-25T18:50:13.825Z,29.30
2018-11-25T18:52:43.199Z,28.40
2018-11-25T18:55:10.444Z,28.30
2018-11-25T18:57:38.837Z,25.00
2018-11-25T19:00:12.627Z,28.30
2018-11-25T19:02:43.699Z,28.20
2018-11-25T19:05:12.119Z,27.80
2018-11-25T19:07:40.580Z,25.00
2018-11-25T19:10:11.700Z,24.00
2018-11-25T19:12:44.241Z,23.40
2018-11-25T19:15:09.920Z,23.40
2018-11-25T19:17:38.228Z,23.20
2018-11-25T19:20:12.400Z,23.20
2018-11-25T19:22:41.271Z,23.10
2018-11-25T19:25:11.229Z,23.10
2018-11-25T19:27:39.884Z,23.00
2018-11-25T19:30:10.551Z,22.90
2018-11-25T19:32:38.896Z,22.80
2018-11-25T19:35:10.033Z,22.80
2018-11-25T19:37:38.356Z,22.80
2018-11-25T19:40:11.775Z,22.70
2018-11-25T19:42:40.199Z,22.80
2018-11-25T19:45:10.523Z,22.80
2018-11-25T19:47:39.002Z,22.60
2018-11-25T19:50:10.683Z,22.70
2018-11-25T19:52:39.056Z,22.70
2018-11-25T19:55:07.627Z,22.60
2018-11-25T19:57:35.995Z,22.90
2018-11-25T20:00:06.874Z,22.70
2018-11-25T20:02:35.523Z,22.70
2018-11-25T20:05:03.845Z,22.50
2018-11-25T20:07:32.179Z,22.50
2018-11-25T20:10:00.561Z,22.50
2018-11-25T20:12:34.390Z,22.40
2018-11-25T20:15:02.777Z,22.40
2018-11-25T20:17:31.158Z,22.30
2018-11-25T20:19:59.689Z,22.30
2018-11-25T20:22:28.055Z,22.30
2018-11-25T20:24:56.524Z,22.30
2018-11-25T20:27:30.698Z,22.30
2018-11-25T20:29:59.140Z,22.30
2018-11-25T20:32:33.006Z,22.10
2018-11-25T20:35:01.331Z,22.10
2018-11-25T20:37:29.661Z,22.10
2018-11-25T20:39:58.157Z,22.10
2018-11-25T20:42:26.476Z,22.00
2018-11-25T20:44:54.837Z,21.90
2018-11-25T20:47:23.183Z,21.90
2018-11-25T20:49:51.490Z,22.70
2018-11-25T20:52:25.166Z,22.40
2018-11-25T20:54:53.567Z,22.50
2018-11-25T20:57:21.883Z,21.90
2018-11-25T20:59:50.213Z,22.20
2018-11-25T21:02:20.409Z,23.80
2018-11-25T21:04:47.001Z,22.90
2018-11-25T21:07:15.315Z,24.20
2018-11-25T21:09:43.720Z,24.40
2018-11-25T21:12:12.143Z,25.80
2018-11-25T21:14:40.616Z,27.30
2018-11-25T21:17:08.941Z,27.40
2018-11-25T21:19:37.284Z,27.40
2018-11-25T21:22:05.902Z,27.50
2018-11-25T21:24:34.349Z,27.50
2018-11-25T21:27:02.726Z,27.50
2018-11-25T21:29:31.101Z,27.90
2018-11-25T21:31:59.494Z,27.00
2018-11-25T21:34:27.778Z,27.20
2018-11-25T21:36:56.070Z,26.70
2018-11-25T21:39:24.508Z,26.60
2018-11-25T21:41:52.874Z,26.10
2018-11-25T21:44:21.183Z,26.30
2018-11-25T21:46:49.598Z,26.30
2018-11-25T21:49:18.065Z,26.20
2018-11-25T21:51:46.533Z,26.40
2018-11-25T21:54:15.025Z,26.60
2018-11-25T21:56:43.322Z,26.50
2018-11-25T21:59:11.675Z,26.60
2018-11-25T22:01:39.968Z,26.60
2018-11-25T22:04:08.392Z,26.60
2018-11-25T22:06:36.821Z,26.50
2018-11-25T22:09:09.020Z,26.60
2018-11-25T22:11:37.763Z,26.60
2018-11-25T22:14:06.251Z,26.70
2018-11-25T22:16:34.613Z,26.70
2018-11-25T22:19:02.967Z,26.80
2018-11-25T22:21:31.325Z,26.80
2018-11-25T22:23:59.613Z,26.90
2018-11-25T22:26:28.056Z,26.90
2018-11-25T22:28:56.436Z,27.00
2018-11-25T22:31:24.854Z,27.00
2018-11-25T22:33:53.177Z,27.10
2018-11-25T22:36:21.470Z,27.20
2018-11-25T22:38:49.790Z,27.20
2018-11-25T22:41:18.132Z,27.40
2018-11-25T22:43:46.577Z,27.40
2018-11-25T22:46:14.947Z,27.50
2018-11-25T22:48:43.309Z,28.40
2018-11-25T22:51:11.674Z,28.20
2018-11-25T22:53:40.574Z,28.10
2018-11-25T22:56:08.894Z,28.00
2018-11-25T22:58:37.184Z,28.10
2018-11-25T23:01:06.155Z,28.20
2018-11-25T23:03:34.439Z,28.30
2018-11-25T23:06:18.025Z,28.20
2018-11-25T23:08:46.350Z,28.20
2018-11-25T23:11:17.294Z,28.30
2018-11-25T23:13:45.583Z,28.30
2018-11-25T23:16:13.857Z,28.30
2018-11-25T23:18:42.234Z,28.30
2018-11-25T23:21:10.583Z,28.30
2018-11-25T23:23:38.907Z,28.30
2018-11-25T23:26:07.221Z,28.30
2018-11-25T23:28:35.574Z,28.40
2018-11-25T23:31:03.899Z,28.30
2018-11-25T23:33:32.213Z,28.30
2018-11-25T23:36:00.549Z,28.40
2018-11-25T23:38:28.903Z,28.40
2018-11-25T23:40:57.235Z,28.40
2018-11-25T23:43:25.532Z,28.40
2018-11-25T23:45:53.911Z,28.40
2018-11-25T23:48:22.320Z,28.40
2018-11-25T23:50:50.614Z,28.40
2018-11-25T23:53:19.003Z,28.20
2018-11-25T23:55:47.277Z,28.40
2018-11-25T23:58:15.691Z,28.40
